createdAt,value
2022-12-04T00:01:12.690Z,59.20
2022-12-04T00:03:39.998Z,56.97
2022-12-04T00:06:12.776Z,55.80
2022-12-04T00:08:40.533Z,55.60
2022-12-04T00:11:08.682Z,56.88
2022-12-04T00:13:35.908Z,55.58
2022-12-04T00:16:06.361Z,51.90
2022-12-04T00:18:33.205Z,52.25
2022-12-04T00:20:59.846Z,54.75
2022-12-04T00:23:26.435Z,51.60
2022-12-04T00:25:53.393Z,49.83
2022-12-04T00:28:20.023Z,50.93
2022-12-04T00:30:47.260Z,54.30
2022-12-04T00:33:14.160Z,55.22
2022-12-04T00:35:41.069Z,49.58
2022-12-04T00:38:07.996Z,53.78
2022-12-04T00:40:34.659Z,51.83
2022-12-04T00:43:01.290Z,60.10
2022-12-04T00:45:28.135Z,56.20
2022-12-04T00:47:54.914Z,54.63
2022-12-04T00:50:22.181Z,56.38
2022-12-04T00:52:48.781Z,51.30
2022-12-04T00:55:15.507Z,58.45
2022-12-04T00:57:42.112Z,56.95
2022-12-04T01:00:09.084Z,59.33
2022-12-04T01:02:35.695Z,58.70
2022-12-04T01:05:02.401Z,60.67
2022-12-04T01:07:29.128Z,63.80
2022-12-04T01:09:56.011Z,64.10
2022-12-04T01:12:22.839Z,61.88
2022-12-04T01:14:49.376Z,66.10
2022-12-04T01:17:15.962Z,63.63
2022-12-04T01:19:42.575Z,64.05
2022-12-04T01:22:09.185Z,62.95
2022-12-04T01:24:35.798Z,62.92
2022-12-04T01:27:02.334Z,60.55
2022-12-04T01:29:28.944Z,57.73
2022-12-04T01:31:55.672Z,61.17
2022-12-04T01:34:22.323Z,60.42
2022-12-04T01:36:48.881Z,64.35
2022-12-04T01:39:15.448Z,61.33
2022-12-04T01:41:42.111Z,62.77
2022-12-04T01:44:18.683Z,64.53
2022-12-04T01:46:58.780Z,59.00
2022-12-04T01:49:34.713Z,60.97
2022-12-04T01:52:07.189Z,58.15
2022-12-04T01:54:41.986Z,60.97
2022-12-04T01:57:17.832Z,64.43
2022-12-04T01:59:54.830Z,59.30
2022-12-04T02:02:27.242Z,61.60
2022-12-04T02:04:54.534Z,54.47
2022-12-04T02:07:21.102Z,62.13
2022-12-04T02:09:53.969Z,63.85
2022-12-04T02:12:39.034Z,57.30
2022-12-04T02:15:17.482Z,62.15
2022-12-04T02:18:02.193Z,63.08
2022-12-04T02:20:52.876Z,61.97
2022-12-04T02:23:23.189Z,59.15
2022-12-04T02:26:15.754Z,62.72
2022-12-04T02:28:51.462Z,64.70
2022-12-04T02:31:22.965Z,60.47
2022-12-04T02:34:09.075Z,65.17
2022-12-04T02:36:44.911Z,62.15
2022-12-04T02:39:34.457Z,62.72
2022-12-04T02:42:15.775Z,61.97
2022-12-04T02:44:49.318Z,63.15
2022-12-04T02:47:20.228Z,64.50
2022-12-04T02:49:58.754Z,64.45
2022-12-04T02:52:48.561Z,65.85
2022-12-04T02:55:24.007Z,63.38
2022-12-04T02:57:56.137Z,63.15
2022-12-04T03:00:22.906Z,61.00
2022-12-04T03:03:02.781Z,64.10
2022-12-04T03:05:59.350Z,63.50
2022-12-04T03:08:42.358Z,58.95
2022-12-04T03:11:09.170Z,59.38
2022-12-04T03:13:59.095Z,62.40
2022-12-04T03:16:32.634Z,57.33
2022-12-04T03:19:03.761Z,60.33
2022-12-04T03:21:35.073Z,61.33
2022-12-04T03:24:11.789Z,59.17
2022-12-04T03:26:43.999Z,60.70
2022-12-04T03:29:28.425Z,60.65
2022-12-04T03:32:03.442Z,61.50
2022-12-04T03:34:43.186Z,60.28
2022-12-04T03:37:19.626Z,60.67
2022-12-04T03:39:58.345Z,56.83
2022-12-04T03:42:37.928Z,56.92
2022-12-04T03:45:12.423Z,59.60
2022-12-04T03:48:01.840Z,55.83
2022-12-04T03:50:37.270Z,56.25
2022-12-04T03:53:30.771Z,55.23
2022-12-04T03:56:11.698Z,63.50
2022-12-04T03:58:43.513Z,55.47
2022-12-04T04:01:13.222Z,56.72
2022-12-04T04:03:45.673Z,53.03
2022-12-04T04:06:24.159Z,53.87
2022-12-04T04:08:55.756Z,58.00
2022-12-04T04:11:40.170Z,56.22
2022-12-04T04:14:37.878Z,54.40
2022-12-04T04:17:27.552Z,52.97
2022-12-04T04:20:21.629Z,54.60
2022-12-04T04:23:09.387Z,55.83
2022-12-04T04:25:40.506Z,47.80
2022-12-04T04:28:33.166Z,52.53
2022-12-04T04:31:13.678Z,53.65
2022-12-04T04:33:50.036Z,47.07
2022-12-04T04:36:30.525Z,51.00
2022-12-04T04:39:04.321Z,50.60
2022-12-04T04:41:45.364Z,54.83
2022-12-04T04:44:15.507Z,49.65
2022-12-04T04:46:47.272Z,50.27
2022-12-04T04:49:15.005Z,51.22
2022-12-04T04:51:43.097Z,54.90
2022-12-04T04:54:13.449Z,52.42
2022-12-04T04:56:42.279Z,50.85
2022-12-04T04:59:08.891Z,53.30
2022-12-04T05:01:36.058Z,50.88
2022-12-04T05:04:04.988Z,51.88
2022-12-04T05:06:32.234Z,51.35
2022-12-04T05:08:58.800Z,55.13
2022-12-04T05:11:25.501Z,54.17
2022-12-04T05:13:52.772Z,50.45
2022-12-04T05:16:19.495Z,52.13
2022-12-04T05:19:06.082Z,51.00
2022-12-04T05:21:34.257Z,47.58
2022-12-04T05:24:01.246Z,46.10
2022-12-04T05:26:27.847Z,45.17
2022-12-04T05:28:54.607Z,46.13
2022-12-04T05:31:21.200Z,51.25
2022-12-04T05:33:47.809Z,42.33
2022-12-04T05:36:14.430Z,41.60
2022-12-04T05:38:41.181Z,45.90
2022-12-04T05:41:08.094Z,43.33
2022-12-04T05:43:37.723Z,43.58
2022-12-04T05:46:06.818Z,40.83
2022-12-04T05:48:35.627Z,42.63
2022-12-04T05:51:10.353Z,39.40
2022-12-04T05:53:37.685Z,41.45
2022-12-04T05:56:06.468Z,39.90
2022-12-04T05:58:37.122Z,39.88
2022-12-04T06:01:17.198Z,40.63
2022-12-04T06:03:44.507Z,38.88
2022-12-04T06:06:17.614Z,38.30
2022-12-04T06:08:48.372Z,39.80
2022-12-04T06:11:18.413Z,39.40
2022-12-04T06:13:45.855Z,37.60
2022-12-04T06:16:17.244Z,39.42
2022-12-04T06:18:44.206Z,38.38
2022-12-04T06:21:11.241Z,40.40
2022-12-04T06:23:37.872Z,40.55
2022-12-04T06:26:07.379Z,34.47
2022-12-04T06:28:35.454Z,37.15
2022-12-04T06:31:04.133Z,34.58
2022-12-04T06:33:30.971Z,35.72
2022-12-04T06:36:01.857Z,35.00
2022-12-04T06:38:29.459Z,38.37
2022-12-04T06:40:56.602Z,38.92
2022-12-04T06:43:23.734Z,36.95
2022-12-04T06:46:10.491Z,41.05
2022-12-04T06:48:37.544Z,35.13
2022-12-04T06:51:06.112Z,39.13
2022-12-04T06:53:33.225Z,34.92
2022-12-04T06:56:02.464Z,36.30
2022-12-04T06:58:29.712Z,35.72
2022-12-04T07:00:56.858Z,33.55
2022-12-04T07:03:24.316Z,34.03
2022-12-04T07:05:51.688Z,34.47
2022-12-04T07:08:18.697Z,34.67
2022-12-04T07:10:45.400Z,34.33
2022-12-04T07:13:11.984Z,36.42
2022-12-04T07:15:38.627Z,36.17
2022-12-04T07:18:05.712Z,31.48
2022-12-04T07:20:32.536Z,34.05
2022-12-04T07:23:03.992Z,36.17
2022-12-04T07:25:33.795Z,30.90
2022-12-04T07:28:00.376Z,34.37
2022-12-04T07:30:26.997Z,35.03
2022-12-04T07:32:53.606Z,33.67
2022-12-04T07:35:20.227Z,32.00
2022-12-04T07:37:46.795Z,31.98
2022-12-04T07:40:13.843Z,30.07
2022-12-04T07:42:41.086Z,32.40
2022-12-04T07:45:08.682Z,30.33
2022-12-04T07:47:36.587Z,30.63
2022-12-04T07:50:04.827Z,32.38
2022-12-04T07:52:31.549Z,31.13
2022-12-04T07:54:58.107Z,31.45
2022-12-04T07:57:24.654Z,30.73
2022-12-04T07:59:51.237Z,33.40
2022-12-04T08:02:17.794Z,32.30
2022-12-04T08:04:44.981Z,30.73
2022-12-04T08:07:11.763Z,29.58
2022-12-04T08:09:38.524Z,30.25
2022-12-04T08:12:05.326Z,33.88
2022-12-04T08:14:31.933Z,33.17
2022-12-04T08:16:58.592Z,29.17
2022-12-04T08:19:25.539Z,29.98
2022-12-04T08:21:54.263Z,27.83
2022-12-04T08:24:20.916Z,30.38
2022-12-04T08:26:47.491Z,32.00
2022-12-04T08:29:14.139Z,28.93
2022-12-04T08:31:40.922Z,28.85
2022-12-04T08:34:07.980Z,31.80
2022-12-04T08:36:35.218Z,26.02
2022-12-04T08:39:01.899Z,27.17
2022-12-04T08:41:28.606Z,29.33
2022-12-04T08:43:55.977Z,29.08
2022-12-04T08:46:24.978Z,31.63
2022-12-04T08:48:51.865Z,27.30
2022-12-04T08:51:29.757Z,26.85
2022-12-04T08:53:59.046Z,28.53
2022-12-04T08:56:27.441Z,28.75
2022-12-04T08:58:56.183Z,29.20
2022-12-04T09:01:23.332Z,27.63
2022-12-04T09:03:50.448Z,29.08
2022-12-04T09:06:18.565Z,26.73
2022-12-04T09:08:46.002Z,27.50
2022-12-04T09:11:15.916Z,25.48
2022-12-04T09:13:43.958Z,27.45
2022-12-04T09:16:15.010Z,25.25
2022-12-04T09:18:43.236Z,26.03
2022-12-04T09:23:02.400Z,26.08
2022-12-04T09:25:45.632Z,27.15
2022-12-04T09:28:31.877Z,29.00
2022-12-04T09:31:18.730Z,26.88
2022-12-04T09:34:04.942Z,25.73
2022-12-04T09:36:50.876Z,23.50
2022-12-04T09:41:58.245Z,23.27
2022-12-04T09:44:48.016Z,24.65
2022-12-04T09:47:37.186Z,24.55
2022-12-04T09:50:26.404Z,22.33
2022-12-04T09:53:17.392Z,22.50
2022-12-04T09:56:06.492Z,20.88
2022-12-04T09:58:58.412Z,19.90
2022-12-04T10:01:48.720Z,22.27
2022-12-04T10:04:34.964Z,22.60
2022-12-04T10:07:26.583Z,23.52
2022-12-04T10:10:24.627Z,23.00
2022-12-04T10:13:26.363Z,20.90
2022-12-04T10:16:24.696Z,24.92
2022-12-04T10:19:19.204Z,23.90
2022-12-04T10:22:13.786Z,20.58
2022-12-04T10:25:03.222Z,23.70
2022-12-04T10:27:54.848Z,21.55
2022-12-04T10:30:42.990Z,20.10
2022-12-04T10:33:37.316Z,25.88
2022-12-04T10:36:29.633Z,23.35
2022-12-04T10:39:22.127Z,18.63
2022-12-04T10:42:16.945Z,19.83
2022-12-04T10:45:02.300Z,20.60
2022-12-04T10:47:49.751Z,19.30
2022-12-04T10:50:36.670Z,18.65
2022-12-04T10:53:29.643Z,21.50
2022-12-04T10:56:18.969Z,22.30
2022-12-04T10:59:05.799Z,20.77
2022-12-04T11:01:52.951Z,21.15
2022-12-04T11:04:40.310Z,22.38
2022-12-04T11:07:28.523Z,24.57
2022-12-04T11:10:21.343Z,27.27
2022-12-04T11:13:15.378Z,26.83
2022-12-04T11:16:00.860Z,28.55
2022-12-04T11:18:48.935Z,28.85
2022-12-04T11:21:34.618Z,31.33
2022-12-04T11:24:24.879Z,26.10
2022-12-04T11:27:20.321Z,29.98
2022-12-04T11:30:09.976Z,28.13
2022-12-04T11:32:56.810Z,26.33
2022-12-04T11:35:43.356Z,26.67
2022-12-04T11:38:32.390Z,25.98
2022-12-04T11:41:28.720Z,25.92
2022-12-04T11:44:26.484Z,24.13
2022-12-04T11:47:18.587Z,24.75
2022-12-04T11:50:13.609Z,23.92
2022-12-04T11:53:07.857Z,21.92
2022-12-04T11:56:14.311Z,23.20
2022-12-04T11:59:30.781Z,22.58
2022-12-04T12:02:34.249Z,20.63
2022-12-04T12:05:36.978Z,21.03
2022-12-04T12:08:30.545Z,19.58
2022-12-04T12:11:23.566Z,22.23
2022-12-04T12:14:19.508Z,22.77
2022-12-04T12:17:15.507Z,21.35
2022-12-04T12:20:11.488Z,23.80
2022-12-04T12:23:21.573Z,23.83
2022-12-04T12:26:11.647Z,20.95
2022-12-04T12:29:16.584Z,21.40
2022-12-04T12:32:21.186Z,20.90
2022-12-04T12:35:19.496Z,21.90
2022-12-04T12:38:10.435Z,21.80
2022-12-04T12:41:01.126Z,22.92
2022-12-04T12:43:54.276Z,21.88
2022-12-04T12:46:49.410Z,21.77
2022-12-04T12:49:41.704Z,25.75
2022-12-04T12:52:34.461Z,22.45
2022-12-04T12:55:24.523Z,26.20
2022-12-04T12:58:18.272Z,21.05
2022-12-04T13:01:12.315Z,23.88
2022-12-04T13:04:06.515Z,22.33
2022-12-04T13:06:58.535Z,21.92
2022-12-04T13:09:49.035Z,23.52
2022-12-04T13:12:44.177Z,24.55
2022-12-04T13:15:39.038Z,22.60
2022-12-04T13:18:28.682Z,25.02
2022-12-04T13:21:29.796Z,25.42
2022-12-04T13:25:00.298Z,25.65
2022-12-04T13:27:59.170Z,21.83
2022-12-04T13:30:50.656Z,24.27
2022-12-04T13:33:54.737Z,21.83
2022-12-04T13:36:54.881Z,21.73
2022-12-04T13:40:13.676Z,19.73
2022-12-04T13:43:31.952Z,24.70
2022-12-04T13:46:30.240Z,23.55
2022-12-04T13:49:44.065Z,23.75
2022-12-04T13:52:40.201Z,26.13
2022-12-04T13:55:29.164Z,28.45
2022-12-04T13:58:27.774Z,32.05
2022-12-04T14:01:25.298Z,30.65
2022-12-04T14:04:24.108Z,33.83
2022-12-04T14:07:25.090Z,30.92
2022-12-04T14:10:27.521Z,31.35
2022-12-04T14:13:20.026Z,27.80
2022-12-04T14:16:15.445Z,26.67
2022-12-04T14:19:03.172Z,28.70
2022-12-04T14:21:48.490Z,30.83
2022-12-04T14:24:37.686Z,26.60
2022-12-04T14:27:36.610Z,26.73
2022-12-04T14:30:25.916Z,27.58
2022-12-04T14:33:19.691Z,26.80
2022-12-04T14:36:09.855Z,28.20
2022-12-04T14:39:20.961Z,29.83
2022-12-04T14:42:13.739Z,27.05
2022-12-04T14:45:00.995Z,31.17
2022-12-04T14:47:57.496Z,30.83
2022-12-04T14:50:53.186Z,33.45
2022-12-04T14:53:45.780Z,31.52
2022-12-04T14:56:53.251Z,31.75
2022-12-04T14:59:45.621Z,33.58
2022-12-04T15:02:35.054Z,30.90
2022-12-04T15:05:25.535Z,32.10
2022-12-04T15:08:14.275Z,31.48
2022-12-04T15:11:18.274Z,32.28
2022-12-04T15:14:11.772Z,30.38
2022-12-04T15:17:02.986Z,34.25
2022-12-04T15:19:49.705Z,32.28
2022-12-04T15:22:35.723Z,29.10
2022-12-04T15:25:26.350Z,31.45
2022-12-04T15:28:19.823Z,30.45
2022-12-04T15:31:14.102Z,35.60
2022-12-04T15:34:06.384Z,28.67
2022-12-04T15:36:56.833Z,31.85
2022-12-04T15:39:43.006Z,31.08
2022-12-04T15:42:31.430Z,31.15
2022-12-04T15:45:34.925Z,28.65
2022-12-04T15:48:25.521Z,27.08
2022-12-04T15:51:13.074Z,29.05
2022-12-04T15:54:02.157Z,30.17
2022-12-04T15:57:00.467Z,26.95
2022-12-04T15:59:52.065Z,28.08
2022-12-04T16:02:42.436Z,26.05
2022-12-04T16:05:37.563Z,26.13
2022-12-04T16:08:25.222Z,27.88
2022-12-04T16:11:33.854Z,26.80
2022-12-04T16:14:20.785Z,28.52
2022-12-04T16:17:11.155Z,29.52
2022-12-04T16:19:57.698Z,29.88
2022-12-04T16:22:47.426Z,30.00
2022-12-04T16:25:37.087Z,27.70
2022-12-04T16:28:23.660Z,28.73
2022-12-04T16:31:15.205Z,30.05
2022-12-04T16:34:02.605Z,28.85
2022-12-04T16:36:48.354Z,28.42
2022-12-04T16:39:38.303Z,29.25
2022-12-04T16:42:30.000Z,30.35
2022-12-04T16:45:23.289Z,28.75
2022-12-04T16:48:09.096Z,32.65
2022-12-04T16:50:59.345Z,29.35
2022-12-04T16:53:45.642Z,28.13
2022-12-04T16:56:31.404Z,27.80
2022-12-04T16:59:17.177Z,29.08
2022-12-04T17:02:05.101Z,27.98
2022-12-04T17:04:55.807Z,31.45
2022-12-04T17:07:44.869Z,29.50
2022-12-04T17:10:30.423Z,26.65
2022-12-04T17:13:17.981Z,30.50
2022-12-04T17:16:03.410Z,31.63
2022-12-04T17:18:50.076Z,29.42
2022-12-04T17:21:36.532Z,29.15
2022-12-04T17:24:24.063Z,26.38
2022-12-04T17:27:13.052Z,27.70
2022-12-04T17:30:00.566Z,30.40
2022-12-04T17:32:47.983Z,30.25
2022-12-04T17:35:33.754Z,27.65
2022-12-04T17:38:19.779Z,27.33
2022-12-04T17:41:11.172Z,28.55
2022-12-04T17:44:02.713Z,25.85
2022-12-04T17:46:48.413Z,26.48
2022-12-04T17:49:34.480Z,26.83
2022-12-04T17:52:22.409Z,26.77
2022-12-04T17:55:09.098Z,26.50
2022-12-04T17:57:56.885Z,28.05
2022-12-04T18:00:43.017Z,27.33
2022-12-04T18:03:29.036Z,28.00
2022-12-04T18:06:17.970Z,29.42
2022-12-04T18:09:04.479Z,25.70
2022-12-04T18:11:50.536Z,25.45
2022-12-04T18:14:39.051Z,26.52
2022-12-04T18:17:25.164Z,25.38
2022-12-04T18:20:11.715Z,25.80
2022-12-04T18:22:59.841Z,25.83
2022-12-04T18:25:55.196Z,22.65
2022-12-04T18:28:51.640Z,24.45
2022-12-04T18:31:39.297Z,28.58
2022-12-04T18:34:25.728Z,24.98
2022-12-04T18:37:11.595Z,24.08
2022-12-04T18:40:00.073Z,26.85
2022-12-04T18:42:49.590Z,26.20
2022-12-04T18:45:35.611Z,27.23
2022-12-04T18:48:23.192Z,26.50
2022-12-04T18:51:20.023Z,29.83
2022-12-04T18:54:08.196Z,27.80
2022-12-04T18:56:54.987Z,28.50
2022-12-04T18:59:41.097Z,27.95
2022-12-04T19:02:33.759Z,28.88
2022-12-04T19:08:33.735Z,22.20
2022-12-04T19:11:21.766Z,25.75
2022-12-04T19:14:17.685Z,24.60
2022-12-04T19:17:07.576Z,24.58
2022-12-04T19:19:53.903Z,21.50
2022-12-04T19:22:41.801Z,25.65
2022-12-04T19:25:27.989Z,23.70
2022-12-04T19:28:14.357Z,22.60
2022-12-04T19:31:01.825Z,23.30
2022-12-04T19:33:49.422Z,24.38
2022-12-04T19:36:36.001Z,21.63
2022-12-04T19:39:23.921Z,26.25
2022-12-04T19:42:10.734Z,24.63
2022-12-04T19:44:56.719Z,22.52
2022-12-04T19:47:42.698Z,21.93
2022-12-04T19:50:31.315Z,22.88
2022-12-04T19:53:21.382Z,23.50
2022-12-04T19:56:12.188Z,21.27
2022-12-04T19:59:04.646Z,23.20
2022-12-04T20:01:51.209Z,24.90
2022-12-04T20:04:38.655Z,25.02
2022-12-04T20:07:25.007Z,22.10
2022-12-04T20:10:11.357Z,25.20
2022-12-04T20:12:58.850Z,24.88
2022-12-04T20:15:45.056Z,25.87
2022-12-04T20:18:30.728Z,24.50
2022-12-04T20:21:16.426Z,24.55
2022-12-04T20:24:04.632Z,24.42
2022-12-04T20:26:50.756Z,23.15
2022-12-04T20:29:37.481Z,25.83
2022-12-04T20:32:23.387Z,22.85
2022-12-04T20:35:09.392Z,23.95
2022-12-04T20:37:55.334Z,22.23
2022-12-04T20:40:41.595Z,22.98
2022-12-04T20:43:28.401Z,23.33
2022-12-04T20:46:17.933Z,22.98
2022-12-04T20:49:10.020Z,22.48
2022-12-04T20:51:56.123Z,22.20
2022-12-04T20:54:42.250Z,23.70
2022-12-04T20:57:28.658Z,25.90
2022-12-04T21:00:17.076Z,23.15
2022-12-04T21:03:04.454Z,24.02
2022-12-04T21:05:50.070Z,24.40
2022-12-04T21:08:53.604Z,24.40
2022-12-04T21:11:41.912Z,24.65
2022-12-04T21:14:47.869Z,22.55
2022-12-04T21:17:33.288Z,23.48
2022-12-04T21:20:21.003Z,26.30
2022-12-04T21:23:06.686Z,23.08
2022-12-04T21:25:55.378Z,26.23
2022-12-04T21:28:40.938Z,25.10
2022-12-04T21:31:28.971Z,24.92
2022-12-04T21:34:17.575Z,25.92
2022-12-04T21:37:04.471Z,25.15
2022-12-04T21:39:49.957Z,26.42
2022-12-04T21:42:35.580Z,26.63
2022-12-04T21:45:21.173Z,24.48
2022-12-04T21:48:06.718Z,24.48
2022-12-04T21:50:52.205Z,25.95
2022-12-04T21:53:42.392Z,22.85
2022-12-04T21:56:28.172Z,25.83
2022-12-04T21:59:13.536Z,24.67
2022-12-04T22:01:59.046Z,25.63
2022-12-04T22:04:44.320Z,24.15
2022-12-04T22:07:29.692Z,23.92
2022-12-04T22:10:17.043Z,25.63
2022-12-04T22:13:02.441Z,27.95
2022-12-04T22:15:48.038Z,25.75
2022-12-04T22:18:34.558Z,27.65
2022-12-04T22:21:19.865Z,25.23
2022-12-04T22:24:06.345Z,25.98
2022-12-04T22:26:52.955Z,24.58
2022-12-04T22:29:53.542Z,22.05
2022-12-04T22:32:38.791Z,23.33
2022-12-04T22:35:24.065Z,24.80
2022-12-04T22:38:09.640Z,25.23
2022-12-04T22:40:55.242Z,24.00
2022-12-04T22:43:42.439Z,23.55
2022-12-04T22:46:27.749Z,24.70
2022-12-04T22:49:13.045Z,26.33
2022-12-04T22:51:58.508Z,23.83
2022-12-04T22:54:43.702Z,25.73
2022-12-04T22:57:29.190Z,26.60
2022-12-04T23:00:16.878Z,23.80
2022-12-04T23:03:02.272Z,24.43
2022-12-04T23:05:47.718Z,22.27
2022-12-04T23:08:33.195Z,24.10
2022-12-04T23:11:20.967Z,22.48
2022-12-04T23:14:08.292Z,21.20
2022-12-04T23:16:56.155Z,23.13
2022-12-04T23:19:41.784Z,22.17
2022-12-04T23:22:27.369Z,21.60
2022-12-04T23:25:12.879Z,21.33
2022-12-04T23:27:58.045Z,19.55
2022-12-04T23:30:46.979Z,20.67
2022-12-04T23:33:34.128Z,20.38
2022-12-04T23:36:19.366Z,19.00
2022-12-04T23:39:04.689Z,19.92
2022-12-04T23:41:50.818Z,22.05
2022-12-04T23:44:36.156Z,18.85
2022-12-04T23:47:21.715Z,18.75
2022-12-04T23:50:09.464Z,19.48
2022-12-04T23:52:55.073Z,18.85
2022-12-04T23:55:40.506Z,19.23
2022-12-04T23:58:26.490Z,21.77
